Main page
METAR-TAF:

METAR-TAF

Airports :

Málaga Airport

Málaga, Spain

latitude: 36-40N, longitude: 004-29W, elevation: 16 m

Current weather observation

The report was made 27 minutes ago, at 09:00 UTC
Wind 3 kt from the West/Northwest, varying between West and North/Northwest
Temperature 18°C
Humidity 59%
Pressure 1028 hPa
Visibility 10 km or more
no clouds below 1500 m and no cumulonimbus

METAR: LEMG 130900Z 30003KT 260V330 CAVOK 18/10 Q1028 NOSIG

Time: 11:27 (09:27 UTC)

Forecast

The report was made 4 hours and 27 minutes ago, at 05:00 UTC
Forecast valid from 13 at 06 UTC to 14 at 06 UTC
Wind 8 kt from the West/Northwest
Visibility 10 km or more
no clouds below 1500 m and no cumulonimbus
Becoming
from 13 at 08 UTC to 13 at 10 UTC
Wind 10 kt from the East/Southeast
Becoming
from 13 at 18 UTC to 13 at 20 UTC
Wind 6 kt from the West/Northwest

TAF: LEMG 130500Z 1306/1406 29008KT CAVOK TX21/1313Z TN10/1306Z BECMG 1308/1310 12010KT BECMG 1318/1320 29006KT

Weather observations and forecasts of more than 4000 airports (METAR and TAF reports).

The available stations are represented by yellow and red dots on the map.

Hover mouse over dot to see the name of the station.

Then click to see weather observations and forecasts.

To change the map : click on the green buttons with a black cross to zoom in, on the green button with a dash to zoom out, or on the green arrows for adjacent maps.


METAR-TAF: